createdAt,value
2018-11-20T00:02:21.414Z,1.00
2018-11-20T00:05:09.608Z,1.00
2018-11-20T00:07:53.021Z,1.00
2018-11-20T00:10:37.770Z,1.10
2018-11-20T00:13:24.935Z,1.10
2018-11-20T00:16:21.814Z,1.10
2018-11-20T00:19:08.594Z,1.10
2018-11-20T00:21:55.587Z,1.10
2018-11-20T00:24:44.239Z,1.10
2018-11-20T00:27:47.723Z,1.20
2018-11-20T00:30:51.044Z,1.20
2018-11-20T00:33:38.020Z,1.30
2018-11-20T00:36:23.714Z,1.30
2018-11-20T00:38:59.073Z,1.30
2018-11-20T00:41:50.064Z,1.30
2018-11-20T00:44:37.100Z,1.30
2018-11-20T00:47:24.055Z,1.30
2018-11-20T00:50:02.731Z,1.30
2018-11-20T00:52:49.706Z,1.30
2018-11-20T00:56:29.245Z,1.30
2018-11-20T00:59:26.521Z,1.40
2018-11-20T01:02:04.232Z,1.30
2018-11-20T01:04:51.194Z,1.30
2018-11-20T01:07:31.009Z,1.40
2018-11-20T01:10:10.341Z,1.30
2018-11-20T01:12:57.357Z,1.30
2018-11-20T01:15:51.831Z,1.20
2018-11-20T01:18:38.446Z,1.20
2018-11-20T01:21:25.456Z,1.20
2018-11-20T01:24:07.889Z,1.30
2018-11-20T01:26:59.089Z,1.30
2018-11-20T01:29:56.662Z,1.30
2018-11-20T01:32:54.836Z,1.30
2018-11-20T01:35:53.857Z,1.30
2018-11-20T01:38:32.441Z,1.20
2018-11-20T01:41:19.713Z,1.30
2018-11-20T01:44:06.855Z,1.30
2018-11-20T01:46:47.756Z,1.30
2018-11-20T01:49:34.587Z,1.30
2018-11-20T01:52:10.030Z,1.30
2018-11-20T01:55:10.431Z,1.30
2018-11-20T01:58:07.305Z,1.30
2018-11-20T02:01:07.306Z,1.30
2018-11-20T02:03:56.945Z,1.30
2018-11-20T02:07:03.250Z,1.30
2018-11-20T02:09:47.008Z,1.40
2018-11-20T02:12:33.778Z,1.40
2018-11-20T02:15:27.905Z,1.40
2018-11-20T02:18:20.664Z,1.40
2018-11-20T02:20:59.382Z,1.40
2018-11-20T02:23:46.003Z,1.40
2018-11-20T02:26:32.905Z,1.40
2018-11-20T02:29:19.536Z,1.40
2018-11-20T02:32:02.646Z,1.40
2018-11-20T02:35:00.117Z,1.40
2018-11-20T02:37:51.354Z,1.40
2018-11-20T02:40:33.330Z,1.40
2018-11-20T02:43:20.412Z,1.30
2018-11-20T02:46:11.747Z,1.40
2018-11-20T02:49:14.802Z,1.40
2018-11-20T02:52:10.187Z,1.40
2018-11-20T02:54:51.583Z,1.40
2018-11-20T02:57:31.429Z,1.40
2018-11-20T03:00:31.664Z,1.40
2018-11-20T03:03:25.879Z,1.40
2018-11-20T03:06:12.816Z,1.40
2018-11-20T03:09:03.811Z,1.40
2018-11-20T03:11:52.441Z,1.40
2018-11-20T03:14:40.619Z,1.40
2018-11-20T03:17:31.897Z,1.40
2018-11-20T03:20:19.022Z,1.40
2018-11-20T03:23:05.667Z,1.50
2018-11-20T03:25:57.798Z,1.40
2018-11-20T03:28:42.329Z,1.40
2018-11-20T03:31:29.307Z,1.40
2018-11-20T03:34:18.062Z,1.40
2018-11-20T03:37:05.578Z,1.40
2018-11-20T03:40:03.009Z,1.50
2018-11-20T03:42:51.138Z,1.40
2018-11-20T03:45:37.757Z,1.50
2018-11-20T03:48:29.409Z,1.50
2018-11-20T03:51:29.820Z,1.50
2018-11-20T03:54:06.597Z,1.50
2018-11-20T03:57:01.356Z,1.50
2018-11-20T03:59:48.294Z,1.60
2018-11-20T04:02:48.917Z,1.60
2018-11-20T04:05:43.038Z,1.60
2018-11-20T04:08:31.569Z,1.60
2018-11-20T04:11:19.010Z,1.70
2018-11-20T04:14:05.979Z,1.70
2018-11-20T04:17:00.952Z,1.70
2018-11-20T04:19:37.805Z,1.70
2018-11-20T04:22:34.130Z,1.70
2018-11-20T04:25:26.243Z,1.70
2018-11-20T04:28:15.057Z,1.70
2018-11-20T04:31:36.948Z,1.70
2018-11-20T04:34:13.817Z,1.60
2018-11-20T04:37:09.530Z,1.70
2018-11-20T04:40:06.675Z,1.70
2018-11-20T04:42:57.496Z,1.80
2018-11-20T04:45:44.197Z,1.80
2018-11-20T04:48:31.893Z,1.80
2018-11-20T04:51:14.060Z,1.70
2018-11-20T04:54:05.039Z,1.70
2018-11-20T04:56:52.459Z,1.70
2018-11-20T04:59:31.420Z,1.70
2018-11-20T05:02:25.833Z,1.80
2018-11-20T05:05:12.838Z,1.80
2018-11-20T05:07:58.745Z,1.80
2018-11-20T05:10:52.929Z,1.80
2018-11-20T05:13:39.773Z,1.80
2018-11-20T05:16:33.568Z,1.80
2018-11-20T05:19:20.663Z,1.80
2018-11-20T05:22:07.556Z,1.80
2018-11-20T05:24:54.745Z,1.80
2018-11-20T05:27:43.383Z,1.80
2018-11-20T05:30:29.992Z,1.80
2018-11-20T05:33:21.340Z,1.80
2018-11-20T05:36:04.247Z,1.80
2018-11-20T05:38:50.558Z,1.80
2018-11-20T05:41:31.840Z,1.80
2018-11-20T05:44:17.687Z,1.80
2018-11-20T05:47:04.261Z,1.80
2018-11-20T05:49:48.342Z,1.80
2018-11-20T05:52:37.969Z,1.80
2018-11-20T05:55:25.231Z,1.80
2018-11-20T05:58:12.076Z,1.80
2018-11-20T06:01:09.399Z,1.80
2018-11-20T06:03:56.145Z,1.80
2018-11-20T06:06:46.236Z,1.80
2018-11-20T06:09:41.909Z,1.80
2018-11-20T06:12:32.670Z,1.80
2018-11-20T06:15:39.086Z,1.80
2018-11-20T06:18:39.208Z,1.80
2018-11-20T06:21:24.730Z,1.80
2018-11-20T06:24:08.453Z,1.80
2018-11-20T06:27:02.506Z,1.80
2018-11-20T06:29:53.456Z,1.80
2018-11-20T06:32:40.430Z,1.80
2018-11-20T06:35:27.796Z,1.80
2018-11-20T06:38:12.830Z,1.80
2018-11-20T06:41:11.435Z,1.80
2018-11-20T06:43:58.369Z,1.80
2018-11-20T06:46:49.544Z,1.80
2018-11-20T06:49:28.198Z,1.80
2018-11-20T06:52:15.354Z,1.80
2018-11-20T06:55:00.185Z,1.80
2018-11-20T06:57:58.800Z,1.80
2018-11-20T07:00:56.018Z,1.80
2018-11-20T07:03:42.862Z,1.80
2018-11-20T07:06:30.174Z,1.80
2018-11-20T07:09:15.523Z,1.90
2018-11-20T07:12:02.497Z,1.90
2018-11-20T07:15:04.007Z,1.90
2018-11-20T07:18:04.037Z,1.80
2018-11-20T07:20:51.251Z,1.90
2018-11-20T07:23:29.099Z,2.00
2018-11-20T07:26:17.355Z,2.00
2018-11-20T07:29:05.861Z,2.00
2018-11-20T07:31:55.803Z,2.00
2018-11-20T07:34:37.646Z,2.10
2018-11-20T07:37:25.166Z,2.00
2018-11-20T07:40:09.183Z,2.00
2018-11-20T07:42:56.170Z,2.00
2018-11-20T07:45:47.849Z,2.00
2018-11-20T07:48:30.185Z,1.90
2018-11-20T07:51:27.107Z,2.00
2018-11-20T07:54:16.076Z,2.00
2018-11-20T07:57:19.726Z,2.00
2018-11-20T08:00:05.662Z,1.90
2018-11-20T08:02:56.897Z,2.00
2018-11-20T08:05:41.327Z,2.00
2018-11-20T08:08:34.433Z,2.00
2018-11-20T08:11:08.909Z,2.00
2018-11-20T08:13:59.615Z,2.00
2018-11-20T08:16:47.149Z,2.00
2018-11-20T08:19:48.801Z,2.00
2018-11-20T08:22:43.000Z,2.00
2018-11-20T08:25:30.183Z,2.00
2018-11-20T08:28:21.437Z,2.20
2018-11-20T08:31:15.502Z,2.10
2018-11-20T08:34:03.810Z,2.10
2018-11-20T08:37:00.961Z,2.10
2018-11-20T08:39:57.653Z,2.20
2018-11-20T08:42:57.717Z,2.20
2018-11-20T08:45:44.400Z,2.10
2018-11-20T08:48:31.675Z,2.10
2018-11-20T08:51:37.962Z,2.20
2018-11-20T08:54:18.022Z,2.20
2018-11-20T08:57:02.678Z,2.10
2018-11-20T08:59:50.055Z,2.10
2018-11-20T09:02:50.266Z,2.10
2018-11-20T09:05:44.526Z,2.10
2018-11-20T09:08:44.996Z,2.20
2018-11-20T09:11:37.696Z,2.20
2018-11-20T09:14:23.086Z,2.20
2018-11-20T09:17:10.045Z,2.20
2018-11-20T09:19:56.772Z,2.20
2018-11-20T09:22:38.077Z,2.10
2018-11-20T09:25:27.469Z,2.20
2018-11-20T09:28:17.897Z,2.20
2018-11-20T09:30:53.508Z,2.30
2018-11-20T09:33:59.837Z,2.30
2018-11-20T09:36:50.777Z,2.30
2018-11-20T09:39:44.241Z,2.40
2018-11-20T09:42:44.356Z,2.50
2018-11-20T09:46:10.024Z,2.50
2018-11-20T09:48:56.954Z,2.50
2018-11-20T09:51:43.675Z,2.60
2018-11-20T09:54:30.323Z,2.80
2018-11-20T09:57:07.516Z,2.60
2018-11-20T09:59:57.959Z,2.70
2018-11-20T10:02:36.793Z,2.60
2018-11-20T10:05:22.409Z,2.80
2018-11-20T10:08:02.839Z,2.90
2018-11-20T10:11:09.438Z,2.70
2018-11-20T10:14:09.811Z,2.60
2018-11-20T10:16:56.824Z,2.60
2018-11-20T10:19:43.499Z,2.70
2018-11-20T10:22:30.478Z,2.70
2018-11-20T10:25:20.526Z,2.80
2018-11-20T10:28:26.896Z,2.90
2018-11-20T10:31:21.102Z,2.90
2018-11-20T10:34:18.753Z,2.70
2018-11-20T10:37:05.349Z,2.70
2018-11-20T10:40:11.666Z,2.70
2018-11-20T10:42:59.624Z,2.80
2018-11-20T10:45:44.916Z,2.70
2018-11-20T10:48:42.422Z,2.70
2018-11-20T10:51:38.507Z,2.70
2018-11-20T10:54:25.608Z,2.80
2018-11-20T10:57:24.430Z,3.00
2018-11-20T11:00:27.765Z,3.00
2018-11-20T11:03:14.592Z,2.80
2018-11-20T11:05:59.810Z,2.90
2018-11-20T11:08:46.929Z,2.90
2018-11-20T11:11:27.232Z,2.90
2018-11-20T11:14:14.435Z,2.80
2018-11-20T11:17:08.337Z,2.80
2018-11-20T11:20:05.348Z,2.90
2018-11-20T11:22:47.731Z,3.10
2018-11-20T11:25:34.627Z,2.90
2018-11-20T11:28:26.870Z,2.70
2018-11-20T11:31:18.770Z,2.70
2018-11-20T11:34:08.197Z,2.70
2018-11-20T11:36:55.035Z,2.80
2018-11-20T11:39:58.550Z,2.70
2018-11-20T11:42:49.709Z,2.80
2018-11-20T11:45:39.713Z,2.90
2018-11-20T11:48:30.810Z,2.80
2018-11-20T11:51:37.388Z,2.70
2018-11-20T11:54:43.573Z,2.70
2018-11-20T11:57:30.654Z,2.70
2018-11-20T12:00:17.219Z,2.80
2018-11-20T12:03:17.097Z,2.80
2018-11-20T12:05:55.982Z,2.80
2018-11-20T12:08:33.429Z,2.80
2018-11-20T12:11:33.780Z,2.70
2018-11-20T12:14:14.210Z,2.60
2018-11-20T12:17:06.953Z,2.60
2018-11-20T12:19:53.695Z,2.70
2018-11-20T12:22:42.410Z,2.60
2018-11-20T12:25:39.506Z,2.70
2018-11-20T12:28:26.409Z,2.70
2018-11-20T12:31:15.044Z,2.60
2018-11-20T12:34:00.008Z,2.70
2018-11-20T12:36:49.898Z,2.60
2018-11-20T12:39:40.786Z,2.70
2018-11-20T12:42:32.554Z,2.70
2018-11-20T12:45:35.417Z,2.70
2018-11-20T12:48:14.765Z,2.60
2018-11-20T12:51:21.355Z,2.60
2018-11-20T12:54:29.792Z,2.60
2018-11-20T12:57:10.730Z,2.50
2018-11-20T12:59:58.052Z,2.70
2018-11-20T13:02:52.465Z,2.60
2018-11-20T13:05:37.632Z,2.60
2018-11-20T13:08:31.657Z,2.70
2018-11-20T13:11:31.888Z,2.60
2018-11-20T13:14:22.323Z,2.60
2018-11-20T13:17:06.987Z,2.60
2018-11-20T13:20:00.803Z,2.50
2018-11-20T13:22:56.905Z,2.30
2018-11-20T13:25:48.080Z,2.20
2018-11-20T13:28:38.990Z,2.30
2018-11-20T13:31:17.418Z,2.40
2018-11-20T13:34:08.344Z,2.40
2018-11-20T13:36:59.896Z,2.40
2018-11-20T13:39:38.038Z,2.50
2018-11-20T13:42:17.184Z,2.30
2018-11-20T13:45:06.766Z,2.10
2018-11-20T13:47:53.394Z,2.10
2018-11-20T13:50:43.661Z,2.00
2018-11-20T13:53:37.571Z,2.10
2018-11-20T13:56:41.040Z,2.00
2018-11-20T13:59:24.287Z,2.00
2018-11-20T14:02:10.978Z,1.90
2018-11-20T14:04:58.508Z,2.00
2018-11-20T14:07:53.657Z,2.10
2018-11-20T14:10:41.311Z,2.00
2018-11-20T14:13:18.625Z,2.00
2018-11-20T14:16:04.336Z,1.90
2018-11-20T14:18:41.909Z,2.00
2018-11-20T14:21:45.223Z,2.00
2018-11-20T14:24:39.858Z,2.00
2018-11-20T14:27:26.828Z,2.00
2018-11-20T14:30:17.866Z,2.20
2018-11-20T14:33:06.076Z,2.20
2018-11-20T14:36:13.471Z,2.20
2018-11-20T14:39:08.852Z,2.20
2018-11-20T14:41:55.913Z,2.20
2018-11-20T14:44:42.689Z,2.20
2018-11-20T14:47:29.725Z,2.20
2018-11-20T14:50:26.391Z,2.10
2018-11-20T14:53:12.240Z,2.20
2018-11-20T14:56:01.238Z,2.00
2018-11-20T14:58:46.341Z,2.00
2018-11-20T15:01:37.141Z,1.90
2018-11-20T15:04:25.434Z,1.90
2018-11-20T15:07:14.158Z,1.90
2018-11-20T15:10:01.945Z,1.90
2018-11-20T15:12:57.091Z,1.90
2018-11-20T15:15:44.454Z,2.00
2018-11-20T15:18:31.502Z,2.00
2018-11-20T15:21:19.922Z,2.10
2018-11-20T15:24:06.165Z,2.00
2018-11-20T15:27:00.405Z,2.00
2018-11-20T15:29:51.358Z,1.80
2018-11-20T15:32:30.069Z,1.90
2018-11-20T15:35:26.531Z,1.90
2018-11-20T15:38:29.537Z,1.80
2018-11-20T15:41:17.802Z,1.70
2018-11-20T15:44:04.346Z,1.70
2018-11-20T15:46:51.362Z,1.70
2018-11-20T15:49:35.219Z,1.70
2018-11-20T15:52:11.774Z,1.70
2018-11-20T15:55:09.687Z,1.70
2018-11-20T15:57:57.893Z,1.70
2018-11-20T16:00:49.998Z,1.60
2018-11-20T16:03:47.081Z,1.60
2018-11-20T16:06:43.077Z,1.60
2018-11-20T16:09:24.901Z,1.60
2018-11-20T16:12:12.191Z,1.60
2018-11-20T16:14:59.176Z,1.60
2018-11-20T16:17:50.544Z,1.70
2018-11-20T16:20:39.115Z,1.60
2018-11-20T16:23:22.308Z,1.60
2018-11-20T16:26:13.222Z,1.70
2018-11-20T16:29:13.678Z,1.70
2018-11-20T16:32:04.741Z,1.70
2018-11-20T16:34:51.924Z,1.80
2018-11-20T16:37:39.091Z,1.70
2018-11-20T16:40:26.369Z,1.70
2018-11-20T16:43:13.521Z,1.70
2018-11-20T16:45:52.174Z,1.70
2018-11-20T16:48:44.791Z,1.70
2018-11-20T16:51:32.330Z,1.70
2018-11-20T16:54:19.103Z,1.70
2018-11-20T16:56:59.905Z,1.70
2018-11-20T16:59:46.568Z,1.80
2018-11-20T17:02:37.034Z,1.70
2018-11-20T17:05:25.244Z,1.70
2018-11-20T17:08:07.959Z,1.80
2018-11-20T17:10:59.262Z,1.80
2018-11-20T17:13:56.536Z,1.80
2018-11-20T17:16:53.739Z,1.90
2018-11-20T17:19:54.183Z,1.90
2018-11-20T17:22:32.056Z,2.00
2018-11-20T17:25:18.812Z,1.90
2018-11-20T17:28:05.761Z,1.90
2018-11-20T17:30:53.043Z,2.00
2018-11-20T17:33:42.827Z,1.90
2018-11-20T17:36:29.584Z,1.90
2018-11-20T17:39:10.760Z,2.00
2018-11-20T17:41:57.832Z,2.00
2018-11-20T17:44:38.883Z,1.90
2018-11-20T17:47:42.394Z,1.90
2018-11-20T17:50:29.602Z,2.00
2018-11-20T17:53:13.960Z,1.90
2018-11-20T17:56:06.843Z,2.00
2018-11-20T17:58:57.986Z,1.90
2018-11-20T18:01:47.785Z,1.90
2018-11-20T18:04:33.568Z,1.90
2018-11-20T18:07:24.919Z,2.00
2018-11-20T18:10:11.081Z,2.00
2018-11-20T18:12:57.877Z,2.00
2018-11-20T18:15:45.325Z,2.00
2018-11-20T18:18:48.773Z,2.00
2018-11-20T18:21:42.907Z,1.90
2018-11-20T18:24:32.013Z,1.90
2018-11-20T18:27:19.231Z,1.90
2018-11-20T18:30:25.408Z,1.90
2018-11-20T18:33:07.247Z,1.90
2018-11-20T18:35:55.517Z,2.00
2018-11-20T18:38:52.998Z,2.00
2018-11-20T18:41:52.186Z,2.00
2018-11-20T18:44:39.486Z,1.90
2018-11-20T18:47:35.405Z,2.00
2018-11-20T18:50:20.957Z,2.00
2018-11-20T18:53:20.914Z,2.00
2018-11-20T18:56:24.271Z,2.10
2018-11-20T18:59:01.746Z,2.10
2018-11-20T19:01:41.559Z,2.10
2018-11-20T19:04:21.735Z,2.00
2018-11-20T19:07:00.241Z,2.00
2018-11-20T19:09:50.494Z,2.00
2018-11-20T19:12:37.900Z,2.00
2018-11-20T19:15:25.986Z,2.00
2018-11-20T19:18:12.750Z,2.10
2018-11-20T19:20:55.710Z,2.00
2018-11-20T19:23:44.099Z,2.00
2018-11-20T19:26:32.297Z,2.00
2018-11-20T19:29:23.338Z,2.00
2018-11-20T19:32:09.128Z,2.00
2018-11-20T19:34:55.983Z,2.00
2018-11-20T19:37:56.798Z,2.10
2018-11-20T19:40:43.764Z,2.10
2018-11-20T19:43:30.761Z,2.10
2018-11-20T19:46:12.905Z,2.00
2018-11-20T19:49:00.062Z,2.10
2018-11-20T19:52:01.070Z,2.10
2018-11-20T19:54:57.518Z,2.10
2018-11-20T19:57:42.647Z,2.10
2018-11-20T20:00:29.401Z,2.00
2018-11-20T20:03:16.361Z,2.00
2018-11-20T20:06:03.293Z,2.00
2018-11-20T20:08:52.019Z,2.00
2018-11-20T20:11:37.932Z,2.10
2018-11-20T20:14:27.477Z,2.10
2018-11-20T20:17:12.372Z,2.10
2018-11-20T20:19:56.429Z,2.10
2018-11-20T20:22:57.770Z,2.00
2018-11-20T20:25:40.805Z,2.00
2018-11-20T20:28:28.148Z,2.10
2018-11-20T20:31:07.618Z,2.10
2018-11-20T20:33:54.332Z,2.00
2018-11-20T20:36:48.426Z,2.10
2018-11-20T20:39:42.997Z,2.10
2018-11-20T20:42:49.742Z,2.10
2018-11-20T20:45:39.859Z,2.20
2018-11-20T20:48:41.416Z,2.10
2018-11-20T20:51:31.722Z,2.10
2018-11-20T20:54:34.893Z,2.10
2018-11-20T20:57:28.961Z,2.00
2018-11-20T21:00:29.268Z,2.00
2018-11-20T21:03:23.206Z,2.00
2018-11-20T21:06:11.362Z,2.00
2018-11-20T21:08:49.101Z,1.90
2018-11-20T21:11:32.138Z,1.80
2018-11-20T21:14:19.018Z,1.90
2018-11-20T21:17:05.847Z,2.00
2018-11-20T21:19:52.565Z,2.00
2018-11-20T21:22:43.432Z,2.00
2018-11-20T21:25:39.634Z,2.00
2018-11-20T21:28:30.750Z,1.90
2018-11-20T21:31:17.804Z,2.00
2018-11-20T21:34:00.072Z,1.90
2018-11-20T21:36:46.974Z,1.90
2018-11-20T21:39:35.094Z,1.90
2018-11-20T21:42:29.380Z,1.90
2018-11-20T21:45:17.571Z,1.90
2018-11-20T21:48:05.792Z,1.90
2018-11-20T21:50:52.795Z,2.00
2018-11-20T21:53:50.028Z,2.00
2018-11-20T21:56:33.681Z,2.00
2018-11-20T21:59:35.581Z,1.90
2018-11-20T22:02:42.381Z,1.90
2018-11-20T22:05:36.437Z,2.00
2018-11-20T22:08:19.340Z,2.00
2018-11-20T22:11:54.465Z,2.00
2018-11-20T22:14:40.429Z,2.00
2018-11-20T22:17:43.188Z,2.00
2018-11-20T22:20:24.219Z,2.00
2018-11-20T22:23:10.337Z,2.00
2018-11-20T22:26:09.771Z,2.00
2018-11-20T22:28:57.072Z,1.90
2018-11-20T22:31:43.229Z,1.90
2018-11-20T22:34:33.659Z,1.90
2018-11-20T22:37:14.066Z,1.90
2018-11-20T22:40:01.390Z,1.90
2018-11-20T22:42:47.337Z,1.90
2018-11-20T22:45:37.835Z,1.80
2018-11-20T22:48:34.464Z,1.80
2018-11-20T22:51:20.653Z,1.90
2018-11-20T22:54:06.845Z,2.00
2018-11-20T22:57:12.453Z,1.90
2018-11-20T23:00:14.865Z,1.90
2018-11-20T23:03:11.529Z,2.00
2018-11-20T23:06:00.628Z,1.90
2018-11-20T23:08:28.729Z,1.80
2018-11-20T23:10:56.831Z,1.80
2018-11-20T23:13:24.937Z,1.90
2018-11-20T23:15:53.045Z,1.90
2018-11-20T23:18:21.123Z,1.80
2018-11-20T23:20:49.254Z,1.90
2018-11-20T23:23:17.718Z,1.80
2018-11-20T23:25:46.072Z,1.80
2018-11-20T23:28:14.188Z,1.90
2018-11-20T23:30:42.252Z,1.80
2018-11-20T23:33:10.365Z,1.80
2018-11-20T23:35:39.289Z,1.80
2018-11-20T23:38:07.370Z,1.80
2018-11-20T23:40:35.433Z,1.80
2018-11-20T23:43:03.542Z,1.80
2018-11-20T23:45:31.999Z,1.80
2018-11-20T23:48:00.127Z,1.90
2018-11-20T23:50:28.205Z,1.90
2018-11-20T23:52:56.296Z,1.80
2018-11-20T23:55:24.392Z,1.80
2018-11-20T23:57:52.811Z,1.70
